createdAt,value
2018-05-01T00:02:43.280Z,3.94
2018-05-01T00:08:33.950Z,3.33
2018-05-01T00:14:24.562Z,3.44
2018-05-01T00:20:15.307Z,2.95
2018-05-01T00:26:05.949Z,2.98
2018-05-01T00:31:56.544Z,2.8
2018-05-01T00:37:47.242Z,3.14
2018-05-01T00:43:37.896Z,3.03
2018-05-01T00:49:28.563Z,2.37
2018-05-01T00:55:19.206Z,2.53
2018-05-01T01:01:09.847Z,2.34
2018-05-01T01:07:00.560Z,2.62
2018-05-01T01:12:51.180Z,2.55
2018-05-01T01:18:41.830Z,2.51
2018-05-01T01:24:32.480Z,2
2018-05-01T01:30:23.140Z,2.95
2018-05-01T01:36:13.795Z,3.06
2018-05-01T01:42:04.455Z,2.82
2018-05-01T01:47:55.083Z,2.74
2018-05-01T01:53:45.696Z,3.47
2018-05-01T01:59:36.395Z,3.4
2018-05-01T02:05:27.045Z,3.67
2018-05-01T02:11:17.715Z,3.63
2018-05-01T02:17:08.325Z,3.2
2018-05-01T02:22:59.005Z,3.35
2018-05-01T02:28:49.645Z,3.96
2018-05-01T02:34:40.334Z,3.44
2018-05-01T02:40:30.926Z,3.68
2018-05-01T02:46:21.602Z,4.05
2018-05-01T02:52:12.279Z,3.64
2018-05-01T02:58:02.923Z,3.47
2018-05-01T03:03:53.555Z,4.17
2018-05-01T03:09:44.253Z,3.44
2018-05-01T03:15:34.870Z,3.21
2018-05-01T03:21:25.560Z,3.3
2018-05-01T03:27:16.192Z,2.92
2018-05-01T03:33:06.908Z,3.09
2018-05-01T03:38:57.550Z,2.56
2018-05-01T03:44:48.179Z,2.29
2018-05-01T03:50:38.890Z,2.15
2018-05-01T03:56:29.481Z,2.03
2018-05-01T04:02:20.217Z,2.08
2018-05-01T04:08:10.816Z,2.29
2018-05-01T04:14:01.483Z,2.16
2018-05-01T04:19:52.135Z,2.49
2018-05-01T04:25:42.807Z,1.95
2018-05-01T04:31:33.466Z,2.91
2018-05-01T04:37:24.137Z,2.78
2018-05-01T04:43:14.792Z,2.5
2018-05-01T04:49:05.470Z,2.46
2018-05-01T04:54:56.119Z,1.99
2018-05-01T05:00:46.749Z,2.12
2018-05-01T05:06:37.457Z,2.3
2018-05-01T05:12:28.078Z,2.45
2018-05-01T05:18:18.730Z,2.32
2018-05-01T05:24:09.419Z,2.18
2018-05-01T05:30:00.070Z,2.19
2018-05-01T05:35:50.743Z,1.97
2018-05-01T05:41:41.397Z,2.61
2018-05-01T05:47:32.049Z,1.92
2018-05-01T05:53:22.732Z,1.92
2018-05-01T05:59:13.439Z,2.19
2018-05-01T06:05:04.033Z,2.98
2018-05-01T06:10:39.079Z,3.81
2018-05-01T06:16:34.052Z,3.17
2018-05-01T06:22:29.088Z,3.24
2018-05-01T06:28:24.045Z,3.73
2018-05-01T06:34:19.100Z,4.43
2018-05-01T06:40:14.074Z,3.69
2018-05-01T06:46:09.102Z,3.81
2018-05-01T06:52:04.060Z,3.49
2018-05-01T06:57:59.097Z,2.93
2018-05-01T07:03:54.073Z,3.49
2018-05-01T07:09:49.092Z,5.36
2018-05-01T07:15:44.177Z,7.83
2018-05-01T07:21:39.106Z,10.98
2018-05-01T07:27:34.171Z,10.22
2018-05-01T07:33:29.085Z,9.13
2018-05-01T07:39:24.106Z,9.08
2018-05-01T07:45:19.147Z,14.84
2018-05-01T07:51:14.091Z,8.3
2018-05-01T07:57:09.153Z,8.03
2018-05-01T08:03:04.139Z,10.75
2018-05-01T08:08:59.219Z,8.09
2018-05-01T08:14:54.121Z,5.97
2018-05-01T08:20:49.110Z,4.77
2018-05-01T08:26:44.135Z,5.33
2018-05-01T08:32:39.130Z,4.38
2018-05-01T08:38:34.113Z,4.75
2018-05-01T08:44:29.108Z,5.28
2018-05-01T08:50:24.146Z,5.14
2018-05-01T08:56:19.149Z,4.7
2018-05-01T09:02:14.190Z,4.98
2018-05-01T09:08:09.163Z,4.99
2018-05-01T09:14:04.139Z,4.61
2018-05-01T09:19:59.184Z,4.52
2018-05-01T09:25:54.159Z,4.08
2018-05-01T09:31:49.152Z,5.41
2018-05-01T09:37:44.166Z,5.28
2018-05-01T09:43:39.158Z,5.24
2018-05-01T09:49:34.179Z,4.75
2018-05-01T09:55:29.160Z,5.3
2018-05-01T10:01:24.175Z,5
2018-05-01T10:07:19.167Z,6.43
2018-05-01T10:13:14.262Z,5.07
2018-05-01T10:19:09.204Z,5.49
2018-05-01T10:25:04.200Z,4.25
2018-05-01T10:30:59.227Z,2.54
2018-05-01T10:36:54.214Z,3.16
2018-05-01T10:42:49.227Z,1.76
2018-05-01T10:48:44.177Z,1.92
2018-05-01T10:54:39.332Z,1.58
2018-05-01T11:00:34.238Z,2.46
2018-05-01T11:06:29.232Z,2.25
2018-05-01T11:12:24.199Z,2.68
2018-05-01T11:18:19.283Z,1.86
2018-05-01T11:24:14.268Z,2.25
2018-05-01T11:30:09.201Z,3.04
2018-05-01T11:36:04.228Z,2.62
2018-05-01T11:41:59.256Z,2.35
2018-05-01T11:47:54.248Z,2.94
2018-05-01T11:53:49.325Z,2.92
2018-05-01T11:59:44.275Z,3.39
2018-05-01T12:05:39.222Z,3.51
2018-05-01T12:11:34.249Z,3.26
2018-05-01T12:17:29.236Z,3.74
2018-05-01T12:23:24.247Z,3.39
2018-05-01T12:29:19.254Z,3.91
2018-05-01T12:35:14.238Z,3.48
2018-05-01T12:41:09.259Z,3.34
2018-05-01T12:47:04.266Z,2.94
2018-05-01T12:52:59.270Z,3.07
2018-05-01T12:58:54.284Z,3
2018-05-01T13:04:49.285Z,3.31
2018-05-01T13:10:44.261Z,3.56
2018-05-01T13:16:39.272Z,3.97
2018-05-01T13:22:34.301Z,3.81
2018-05-01T13:28:29.312Z,3.85
2018-05-01T13:34:24.268Z,3
2018-05-01T13:40:19.289Z,2.79
2018-05-01T13:46:14.297Z,3.13
2018-05-01T13:52:09.285Z,3.07
2018-05-01T13:58:04.304Z,3.29
2018-05-01T14:03:59.284Z,4.13
2018-05-01T14:09:54.315Z,3.92
2018-05-01T14:15:49.341Z,4.09
2018-05-01T14:21:44.325Z,4.34
2018-05-01T14:27:39.320Z,4.04
2018-05-01T14:33:34.341Z,4.09
2018-05-01T14:39:29.316Z,5.18
2018-05-01T14:45:24.309Z,4.06
2018-05-01T14:51:19.363Z,3.46
2018-05-01T14:57:14.319Z,3.98
2018-05-01T15:03:09.397Z,3.8
2018-05-01T15:09:04.436Z,3.79
2018-05-01T15:14:59.317Z,3.73
2018-05-01T15:20:54.374Z,3.62
2018-05-01T15:26:49.321Z,3.69
2018-05-01T15:32:44.360Z,3.51
2018-05-01T15:38:39.326Z,3.87
2018-05-01T15:44:34.360Z,7.17
2018-05-01T15:50:29.371Z,8.66
2018-05-01T15:56:24.389Z,9.61
2018-05-01T16:02:19.351Z,5.77
2018-05-01T16:08:14.413Z,5.61
2018-05-01T16:14:09.431Z,4.48
2018-05-01T16:20:04.378Z,4.88
2018-05-01T16:25:59.408Z,4.47
2018-05-01T16:31:54.415Z,5.04
2018-05-01T16:37:49.387Z,3.44
2018-05-01T16:43:44.377Z,3.69
2018-05-01T16:49:39.377Z,4.24
2018-05-01T16:55:34.394Z,5.62
2018-05-01T17:01:29.379Z,8.2
2018-05-01T17:07:24.427Z,4.6
2018-05-01T17:13:19.471Z,5.22
2018-05-01T17:19:14.416Z,8.68
2018-05-01T17:25:09.414Z,6.36
2018-05-01T17:31:04.408Z,4.78
2018-05-01T17:36:59.421Z,4.59
2018-05-01T17:42:54.390Z,5.75
2018-05-01T17:48:49.427Z,7.54
2018-05-01T17:54:44.415Z,6.23
2018-05-01T18:00:39.458Z,4.7
2018-05-01T18:06:34.490Z,4.51
2018-05-01T18:12:29.471Z,4.88
2018-05-01T18:18:24.494Z,4.55
2018-05-01T18:24:19.452Z,4.16
2018-05-01T18:30:14.427Z,4.99
2018-05-01T18:36:09.554Z,4.17
2018-05-01T18:42:04.440Z,4.14
2018-05-01T18:47:59.430Z,5.99
2018-05-01T18:53:54.508Z,4.78
2018-05-01T18:59:49.434Z,4.6
2018-05-01T19:05:44.450Z,4.32
2018-05-01T19:11:39.472Z,4.61
2018-05-01T19:17:34.460Z,4.68
2018-05-01T19:23:29.496Z,4.3
2018-05-01T19:29:24.493Z,4.04
2018-05-01T19:35:19.445Z,4.14
2018-05-01T19:41:14.481Z,3.82
2018-05-01T19:47:09.468Z,4.17
2018-05-01T19:53:04.471Z,4.05
2018-05-01T19:58:59.466Z,4.57
2018-05-01T20:04:54.496Z,4.63
2018-05-01T20:10:49.475Z,4.48
2018-05-01T20:16:44.509Z,5.57
2018-05-01T20:22:39.494Z,4.96
2018-05-01T20:28:34.501Z,4.95
2018-05-01T20:34:29.510Z,5.4
2018-05-01T20:40:24.540Z,4.95
2018-05-01T20:46:19.512Z,5.93
2018-05-01T20:52:14.529Z,5.1
2018-05-01T20:58:09.534Z,5.86
2018-05-01T21:04:04.545Z,5.84
2018-05-01T21:09:59.526Z,5.99
2018-05-01T21:15:54.513Z,6.1
2018-05-01T21:21:49.538Z,5.42
2018-05-01T21:27:44.553Z,6.48
2018-05-01T21:33:39.522Z,6.71
2018-05-01T21:39:34.546Z,6.37
2018-05-01T21:45:29.525Z,7.33
2018-05-01T21:51:24.685Z,6.68
2018-05-01T21:57:19.649Z,5.88
2018-05-01T22:03:14.548Z,6
2018-05-01T22:09:09.541Z,6.04
2018-05-01T22:15:04.538Z,6.83
2018-05-01T22:20:59.551Z,7.51
2018-05-01T22:26:54.562Z,7.46
2018-05-01T22:32:49.561Z,7.38
2018-05-01T22:38:44.571Z,7.76
2018-05-01T22:44:39.625Z,7.14
2018-05-01T22:50:34.675Z,7.28
2018-05-01T22:56:29.613Z,6.71
2018-05-01T23:02:24.574Z,7.27
2018-05-01T23:08:19.627Z,6.55
2018-05-01T23:14:14.591Z,7.24
2018-05-01T23:20:09.578Z,7.47
2018-05-01T23:26:04.568Z,7.54
2018-05-01T23:31:59.637Z,7
2018-05-01T23:37:54.581Z,7.14
2018-05-01T23:43:49.619Z,7.44
2018-05-01T23:49:44.603Z,7.96
2018-05-01T23:55:39.619Z,7.43
